Etusivu
METAR-TAF:

METAR-TAF

Lentoasemat :

Guwahati, Intia

Leveyspiiri: 26-06-22N, Pituuspiiri: 091-35-09E, korkeus merenpinnasta: 49 m

Tämänhetkinen sää

Tämä raportti tehtiin 32 minuuttia sitten, kello 12.00 UTC
Tuuli 3 kn pohjoisesta
Lämpötila 36°C
Kosteus 64%
Ilmanpaine 998 hPa
Näkyvyys: 5000 m
Hajanaisia pilviä 1800 ft:n korkeudessa
Hajanaisia pilviä 10000 ft:n korkeudessa
usvaa,

METAR: VEGT 221200Z 35003KT 5000 HZ SCT018 SCT100 36/28 Q0998 NOSIG

Aika: 18:02 (12:32 UTC)

Sääennuste

Tämä raportti tehtiin 1 tunti ja 32 minuuttia sitten, kello 11.00 UTC
Ennuste voimassa 22. päivästä klo 12 UTC - 22. päivään klo 21 UTC
Tuuli kn pohjoisesta
Näkyvyys: 4000 m
Hajanaisia pilviä 1800 ft:n korkeudessa
Hajanaisia pilviä 10000 ft:n korkeudessa
utua
Tulossa
22. päivästä klo 15 UTC - 22. päivään klo 17 UTC
Näkyvyys: 2500 m
utua,

TAF: VEGT 221100Z 2212/2221 00000KT 4000 BR SCT018 SCT100 BECMG 2215/2217 2500 BR

Säähavainnot ja -ennusteet yli 4000 lentoasemalta (METAR- ja TAF-raportit).

Käytössä olevat sääasemat on merkitty karttaan keltaisilla ja punaisilla pisteillä.

Aseta hiiri pisteen päälle nähdäksesi sääaseman nimen.

Klikkaa sitten nähdäksesi säähavainnot ja -ennusteet.

Kartan vaihtaminen: klikkaa mustalla rastilla varustettuja vihreitä pisteitä, niin voit zoomata sisään; viivalla varustettua vihreää pistettä, niin voit zoomata ulos tai vihreitä nuolia, niin pääset viereisille kartoille.


METAR-TAF: